createdAt,value
2023-07-25T00:01:06.228Z,18.00
2023-07-25T00:03:33.712Z,18.00
2023-07-25T00:06:06.791Z,18.00
2023-07-25T00:08:33.811Z,18.10
2023-07-25T00:11:01.403Z,18.10
2023-07-25T00:13:28.875Z,18.20
2023-07-25T00:15:55.870Z,18.10
2023-07-25T00:18:22.922Z,18.10
2023-07-25T00:20:49.953Z,18.20
2023-07-25T00:23:16.970Z,18.20
2023-07-25T00:25:43.951Z,18.10
2023-07-25T00:28:10.933Z,18.10
2023-07-25T00:30:37.996Z,18.20
2023-07-25T00:33:05.001Z,18.10
2023-07-25T00:35:32.008Z,18.10
2023-07-25T00:37:58.952Z,18.00
2023-07-25T00:40:26.472Z,18.00
2023-07-25T00:42:56.885Z,17.90
2023-07-25T00:45:25.388Z,18.00
2023-07-25T00:47:53.997Z,17.90
2023-07-25T00:50:21.368Z,17.90
2023-07-25T00:52:48.879Z,17.90
2023-07-25T00:55:15.885Z,17.90
2023-07-25T00:57:42.873Z,17.80
2023-07-25T01:00:10.628Z,17.90
2023-07-25T01:02:37.856Z,17.80
2023-07-25T01:05:05.385Z,17.80
2023-07-25T01:07:32.970Z,17.80
2023-07-25T01:10:00.197Z,17.80
2023-07-25T01:12:27.266Z,17.80
2023-07-25T01:14:54.321Z,17.80
2023-07-25T01:17:25.234Z,17.80
2023-07-25T01:19:53.556Z,17.70
2023-07-25T01:22:21.475Z,17.70
2023-07-25T01:24:49.225Z,17.70
2023-07-25T01:27:17.008Z,17.70
2023-07-25T01:29:44.327Z,17.70
2023-07-25T01:32:12.316Z,17.70
2023-07-25T01:34:39.923Z,17.70
2023-07-25T01:37:07.764Z,17.70
2023-07-25T01:39:34.838Z,17.70
2023-07-25T01:42:02.115Z,17.70
2023-07-25T01:44:29.024Z,17.70
2023-07-25T01:46:57.568Z,17.70
2023-07-25T01:49:24.544Z,17.60
2023-07-25T01:51:51.732Z,17.60
2023-07-25T01:54:20.004Z,17.50
2023-07-25T01:56:50.381Z,17.60
2023-07-25T01:59:18.838Z,17.50
2023-07-25T02:01:45.993Z,17.50
2023-07-25T02:04:13.082Z,17.40
2023-07-25T02:06:40.160Z,17.40
2023-07-25T02:09:07.106Z,17.40
2023-07-25T02:11:34.364Z,17.40
2023-07-25T02:14:01.759Z,17.30
2023-07-25T02:16:29.501Z,17.30
2023-07-25T02:18:56.565Z,17.30
2023-07-25T02:21:23.612Z,17.30
2023-07-25T02:23:50.606Z,17.20
2023-07-25T02:26:17.608Z,17.20
2023-07-25T02:28:44.567Z,17.20
2023-07-25T02:31:11.573Z,17.20
2023-07-25T02:33:40.143Z,17.20
2023-07-25T02:36:07.317Z,17.10
2023-07-25T02:38:34.330Z,17.10
2023-07-25T02:41:01.406Z,17.00
2023-07-25T02:43:28.481Z,17.00
2023-07-25T02:45:55.471Z,17.00
2023-07-25T02:48:22.613Z,17.00
2023-07-25T02:50:49.579Z,17.00
2023-07-25T02:53:16.547Z,16.90
2023-07-25T02:55:43.527Z,16.90
2023-07-25T02:58:10.664Z,16.90
2023-07-25T03:00:37.627Z,16.90
2023-07-25T03:03:04.644Z,16.90
2023-07-25T03:05:31.617Z,16.90
2023-07-25T03:07:58.748Z,16.90
2023-07-25T03:10:25.824Z,16.90
2023-07-25T03:12:53.972Z,16.90
2023-07-25T03:15:21.558Z,16.90
2023-07-25T03:17:48.711Z,16.80
2023-07-25T03:20:15.783Z,16.80
2023-07-25T03:22:44.047Z,16.80
2023-07-25T03:25:11.437Z,16.70
2023-07-25T03:27:38.915Z,16.70
2023-07-25T03:30:06.726Z,16.60
2023-07-25T03:32:33.813Z,16.70
2023-07-25T03:35:01.030Z,16.70
2023-07-25T03:37:28.183Z,16.70
2023-07-25T03:39:55.200Z,16.70
2023-07-25T03:42:22.208Z,16.70
2023-07-25T03:44:49.230Z,16.80
2023-07-25T03:47:16.202Z,16.80
2023-07-25T03:49:43.308Z,16.90
2023-07-25T03:52:10.487Z,16.80
2023-07-25T03:54:37.515Z,16.90
2023-07-25T03:57:05.077Z,16.90
2023-07-25T03:59:32.182Z,17.00
2023-07-25T04:01:59.277Z,16.90
2023-07-25T04:04:26.464Z,16.90
2023-07-25T04:06:53.551Z,17.00
2023-07-25T04:09:20.680Z,17.10
2023-07-25T04:11:47.709Z,17.20
2023-07-25T04:14:14.721Z,17.30
2023-07-25T04:16:41.744Z,17.40
2023-07-25T04:19:08.764Z,17.40
2023-07-25T04:21:35.742Z,17.60
2023-07-25T04:24:02.739Z,17.60
2023-07-25T04:26:29.757Z,17.60
2023-07-25T04:28:56.821Z,17.60
2023-07-25T04:31:23.748Z,17.70
2023-07-25T04:33:50.776Z,17.90
2023-07-25T04:36:17.874Z,17.90
2023-07-25T04:38:44.902Z,18.00
2023-07-25T04:41:12.088Z,18.00
2023-07-25T04:43:39.077Z,18.10
2023-07-25T04:46:06.219Z,17.80
2023-07-25T04:48:33.460Z,17.90
2023-07-25T04:51:00.681Z,18.00
2023-07-25T04:53:27.827Z,18.20
2023-07-25T04:55:54.959Z,18.10
2023-07-25T04:58:21.977Z,18.00
2023-07-25T05:00:51.654Z,17.80
2023-07-25T05:03:18.981Z,17.90
2023-07-25T05:05:46.233Z,17.80
2023-07-25T05:08:13.270Z,18.00
2023-07-25T05:10:42.101Z,18.00
2023-07-25T05:13:09.205Z,18.00
2023-07-25T05:15:36.425Z,17.90
2023-07-25T05:18:03.676Z,18.20
2023-07-25T05:20:31.398Z,18.20
2023-07-25T05:22:58.370Z,18.10
2023-07-25T05:25:25.341Z,18.20
2023-07-25T05:27:52.349Z,18.20
2023-07-25T05:30:19.260Z,18.20
2023-07-25T05:32:46.975Z,18.40
2023-07-25T05:35:14.003Z,18.50
2023-07-25T05:37:40.959Z,18.50
2023-07-25T05:40:08.367Z,18.50
2023-07-25T05:42:35.764Z,18.40
2023-07-25T05:45:02.898Z,18.50
2023-07-25T05:47:30.028Z,18.70
2023-07-25T05:49:58.301Z,18.90
2023-07-25T05:52:25.289Z,19.00
2023-07-25T05:54:53.354Z,19.10
2023-07-25T05:57:21.206Z,19.00
2023-07-25T05:59:48.350Z,19.20
2023-07-25T06:02:17.488Z,18.90
2023-07-25T06:04:47.327Z,19.00
2023-07-25T06:07:15.435Z,19.10
2023-07-25T06:09:42.788Z,19.40
2023-07-25T06:12:10.474Z,19.00
2023-07-25T06:14:37.925Z,19.50
2023-07-25T06:17:05.196Z,19.60
2023-07-25T06:19:32.310Z,19.40
2023-07-25T06:21:59.317Z,19.40
2023-07-25T06:24:26.443Z,19.60
2023-07-25T06:26:53.393Z,19.60
2023-07-25T06:29:20.341Z,19.60
2023-07-25T06:31:47.509Z,19.90
2023-07-25T06:34:14.551Z,19.70
2023-07-25T06:36:41.596Z,19.60
2023-07-25T06:39:09.132Z,19.40
2023-07-25T06:41:36.330Z,19.90
2023-07-25T06:44:04.127Z,20.10
2023-07-25T06:46:31.216Z,20.10
2023-07-25T06:48:58.186Z,19.80
2023-07-25T06:51:25.209Z,19.90
2023-07-25T06:53:52.213Z,19.90
2023-07-25T06:56:19.221Z,19.90
2023-07-25T06:58:46.200Z,19.90
2023-07-25T07:01:13.187Z,19.90
2023-07-25T07:03:40.180Z,19.70
2023-07-25T07:06:07.104Z,19.80
2023-07-25T07:08:34.084Z,19.60
2023-07-25T07:11:01.085Z,19.60
2023-07-25T07:13:29.930Z,19.50
2023-07-25T07:15:58.560Z,19.30
2023-07-25T07:18:25.678Z,19.20
2023-07-25T07:20:52.632Z,19.20
2023-07-25T07:23:19.603Z,19.20
2023-07-25T07:25:46.963Z,19.30
2023-07-25T07:28:14.408Z,19.50
2023-07-25T07:30:41.479Z,19.70
2023-07-25T07:33:08.662Z,20.00
2023-07-25T07:35:35.637Z,20.30
2023-07-25T07:38:02.641Z,20.80
2023-07-25T07:40:29.990Z,21.20
2023-07-25T07:42:57.402Z,21.70
2023-07-25T07:45:25.909Z,21.80
2023-07-25T07:47:53.104Z,21.90
2023-07-25T07:50:20.857Z,21.60
2023-07-25T07:52:48.155Z,21.90
2023-07-25T07:55:16.818Z,22.20
2023-07-25T07:57:45.762Z,21.80
2023-07-25T08:00:14.957Z,21.90
2023-07-25T08:02:46.026Z,21.70
2023-07-25T08:05:14.334Z,20.90
2023-07-25T08:07:41.858Z,20.70
2023-07-25T08:10:09.506Z,20.50
2023-07-25T08:12:36.902Z,20.60
2023-07-25T08:15:04.337Z,20.50
2023-07-25T08:17:31.420Z,20.50
2023-07-25T08:19:58.596Z,20.60
2023-07-25T08:22:25.616Z,20.70
2023-07-25T08:24:55.174Z,20.70
2023-07-25T08:27:22.415Z,20.60
2023-07-25T08:29:50.261Z,20.50
2023-07-25T08:32:17.374Z,20.50
2023-07-25T08:34:44.812Z,20.90
2023-07-25T08:37:11.800Z,21.10
2023-07-25T08:39:38.873Z,21.40
2023-07-25T08:42:08.194Z,20.90
2023-07-25T08:44:38.840Z,21.30
2023-07-25T08:47:11.030Z,21.10
2023-07-25T08:49:41.527Z,21.60
2023-07-25T08:52:09.462Z,21.50
2023-07-25T08:54:38.125Z,21.70
2023-07-25T08:57:06.008Z,21.80
2023-07-25T08:59:33.386Z,22.30
2023-07-25T09:02:00.847Z,21.90
2023-07-25T09:04:28.902Z,21.70
2023-07-25T09:06:56.016Z,22.00
2023-07-25T09:09:24.324Z,22.90
2023-07-25T09:11:52.184Z,23.50
2023-07-25T09:14:19.409Z,24.00
2023-07-25T09:16:46.456Z,24.50
2023-07-25T09:19:14.196Z,24.80
2023-07-25T09:21:51.976Z,24.90
2023-07-25T09:24:19.070Z,24.70
2023-07-25T09:26:53.229Z,24.90
2023-07-25T09:29:22.030Z,24.80
2023-07-25T09:31:49.280Z,24.70
2023-07-25T09:34:18.777Z,24.30
2023-07-25T09:36:48.117Z,24.10
2023-07-25T09:39:16.152Z,24.70
2023-07-25T09:41:44.185Z,24.90
2023-07-25T09:44:11.244Z,24.90
2023-07-25T09:46:38.740Z,24.50
2023-07-25T09:49:05.789Z,23.70
2023-07-25T09:51:32.858Z,23.90
2023-07-25T09:53:59.925Z,24.20
2023-07-25T09:56:28.009Z,24.70
2023-07-25T10:01:26.686Z,24.40
2023-07-25T10:03:55.060Z,23.60
2023-07-25T10:06:22.546Z,24.50
2023-07-25T10:08:49.988Z,24.80
2023-07-25T10:11:17.690Z,25.10
2023-07-25T10:13:44.991Z,25.00
2023-07-25T10:16:15.550Z,24.70
2023-07-25T10:18:42.941Z,25.00
2023-07-25T10:21:12.864Z,25.20
2023-07-25T10:23:40.344Z,25.40
2023-07-25T10:26:21.195Z,25.20
2023-07-25T10:28:48.180Z,24.70
2023-07-25T10:31:31.573Z,24.80
2023-07-25T10:34:00.368Z,24.40
2023-07-25T10:36:27.919Z,24.50
2023-07-25T10:39:08.218Z,24.30
2023-07-25T10:41:35.440Z,24.60
2023-07-25T10:44:03.862Z,23.90
2023-07-25T10:46:35.329Z,24.20
2023-07-25T10:49:04.501Z,24.30
2023-07-25T10:51:53.051Z,24.10
2023-07-25T10:54:25.118Z,23.70
2023-07-25T10:57:11.786Z,23.20
2023-07-25T10:59:58.750Z,23.30
2023-07-25T11:02:33.799Z,23.40
2023-07-25T11:05:16.081Z,23.30
2023-07-25T11:07:49.887Z,23.00
2023-07-25T11:10:25.350Z,22.90
2023-07-25T11:13:02.412Z,23.20
2023-07-25T11:15:46.755Z,23.90
2023-07-25T11:18:15.406Z,24.80
2023-07-25T11:20:42.482Z,25.40
2023-07-25T11:23:09.476Z,26.30
2023-07-25T11:25:36.552Z,27.10
2023-07-25T11:28:03.638Z,26.80
2023-07-25T11:30:30.674Z,27.30
2023-07-25T11:32:57.726Z,27.00
2023-07-25T11:35:26.033Z,26.70
2023-07-25T11:38:02.534Z,26.30
2023-07-25T11:40:30.335Z,26.00
2023-07-25T11:42:58.056Z,26.20
2023-07-25T11:45:25.853Z,26.50
2023-07-25T11:47:54.525Z,26.50
2023-07-25T11:50:27.716Z,26.30
2023-07-25T11:52:58.454Z,25.60
2023-07-25T11:55:27.607Z,25.20
2023-07-25T11:57:55.495Z,25.20
2023-07-25T12:00:23.598Z,25.10
2023-07-25T12:02:50.589Z,25.30
2023-07-25T12:05:28.216Z,25.20
2023-07-25T12:08:03.860Z,25.60
2023-07-25T12:10:36.100Z,25.90
2023-07-25T12:13:04.756Z,26.00
2023-07-25T12:15:51.291Z,26.10
2023-07-25T12:18:30.550Z,26.00
2023-07-25T12:20:59.842Z,25.70
2023-07-25T12:23:34.959Z,25.80
2023-07-25T12:26:03.032Z,25.60
2023-07-25T12:28:44.001Z,25.40
2023-07-25T12:31:11.605Z,24.90
2023-07-25T12:33:39.558Z,24.70
2023-07-25T12:36:07.238Z,24.40
2023-07-25T12:38:34.608Z,24.30
2023-07-25T12:41:01.661Z,24.00
2023-07-25T12:43:28.665Z,23.80
2023-07-25T12:45:55.931Z,23.70
2023-07-25T12:48:23.238Z,23.80
2023-07-25T12:50:51.959Z,23.90
2023-07-25T12:53:18.954Z,23.60
2023-07-25T12:55:46.002Z,23.40
2023-07-25T12:58:13.069Z,23.20
2023-07-25T13:00:40.177Z,23.10
2023-07-25T13:03:09.458Z,22.90
2023-07-25T13:05:36.662Z,22.90
2023-07-25T13:08:03.898Z,22.70
2023-07-25T13:10:30.854Z,22.50
2023-07-25T13:12:57.907Z,22.40
2023-07-25T13:15:25.001Z,22.20
2023-07-25T13:17:52.060Z,22.30
2023-07-25T13:20:19.214Z,22.30
2023-07-25T13:22:46.257Z,21.90
2023-07-25T13:25:13.340Z,21.40
2023-07-25T13:27:40.342Z,21.10
2023-07-25T13:30:08.560Z,21.00
2023-07-25T13:32:35.665Z,20.80
2023-07-25T13:35:02.805Z,20.50
2023-07-25T13:37:29.928Z,20.50
2023-07-25T13:39:56.919Z,20.30
2023-07-25T13:42:24.739Z,20.30
2023-07-25T13:44:51.920Z,20.20
2023-07-25T13:47:19.042Z,20.00
2023-07-25T13:49:46.241Z,20.10
2023-07-25T13:52:13.259Z,19.80
2023-07-25T13:54:40.250Z,19.80
2023-07-25T13:57:07.811Z,19.60
2023-07-25T13:59:37.721Z,19.50
2023-07-25T14:02:04.899Z,19.40
2023-07-25T14:04:32.028Z,19.30
2023-07-25T14:06:59.226Z,19.50
2023-07-25T14:09:26.174Z,19.50
2023-07-25T14:11:53.941Z,19.20
2023-07-25T14:14:21.613Z,19.20
2023-07-25T14:16:48.596Z,19.20
2023-07-25T14:19:15.763Z,19.20
2023-07-25T14:21:43.052Z,19.10
2023-07-25T14:24:10.109Z,19.10
2023-07-25T14:26:37.498Z,18.90
2023-07-25T14:29:04.934Z,18.80
2023-07-25T14:31:32.190Z,19.00
2023-07-25T14:33:59.627Z,18.80
2023-07-25T14:36:26.649Z,19.10
2023-07-25T14:38:53.585Z,19.30
2023-07-25T14:41:20.639Z,19.40
2023-07-25T14:43:48.073Z,19.60
2023-07-25T14:46:15.739Z,19.70
2023-07-25T14:48:42.908Z,19.90
2023-07-25T14:51:09.954Z,19.90
2023-07-25T14:53:37.001Z,19.90
2023-07-25T14:56:04.240Z,19.80
2023-07-25T14:58:31.357Z,19.90
2023-07-25T15:00:58.536Z,19.70
2023-07-25T15:03:25.634Z,19.60
2023-07-25T15:05:52.605Z,19.60
2023-07-25T15:08:19.595Z,19.50
2023-07-25T15:10:46.676Z,19.10
2023-07-25T15:13:13.651Z,19.20
2023-07-25T15:15:40.677Z,19.30
2023-07-25T15:18:09.055Z,19.10
2023-07-25T15:20:36.294Z,19.10
2023-07-25T15:23:03.286Z,19.10
2023-07-25T15:25:30.306Z,19.10
2023-07-25T15:27:57.318Z,19.10
2023-07-25T15:30:24.349Z,19.10
2023-07-25T15:32:51.386Z,19.00
2023-07-25T15:35:18.471Z,18.80
2023-07-25T15:37:45.525Z,18.70
2023-07-25T15:40:12.601Z,18.70
2023-07-25T15:42:39.626Z,18.80
2023-07-25T15:45:06.998Z,18.70
2023-07-25T15:47:34.019Z,18.60
2023-07-25T15:50:01.129Z,18.70
2023-07-25T15:52:28.254Z,18.70
2023-07-25T15:54:55.182Z,18.50
2023-07-25T15:57:22.174Z,18.50
2023-07-25T15:59:49.175Z,18.50
2023-07-25T16:02:16.322Z,18.60
2023-07-25T16:04:43.248Z,18.60
2023-07-25T16:07:10.219Z,18.60
2023-07-25T16:09:37.680Z,18.40
2023-07-25T16:12:05.642Z,18.50
2023-07-25T16:14:32.587Z,18.60
2023-07-25T16:16:59.584Z,18.60
2023-07-25T16:19:27.125Z,18.50
2023-07-25T16:21:54.129Z,18.50
2023-07-25T16:24:21.079Z,18.40
2023-07-25T16:26:48.040Z,18.30
2023-07-25T16:29:15.182Z,18.30
2023-07-25T16:31:42.445Z,18.30
2023-07-25T16:34:09.455Z,18.30
2023-07-25T16:36:36.811Z,18.20
2023-07-25T16:39:04.025Z,18.20
2023-07-25T16:41:31.260Z,18.20
2023-07-25T16:43:58.350Z,18.20
2023-07-25T16:46:25.471Z,18.10
2023-07-25T16:48:52.516Z,18.00
2023-07-25T16:51:19.452Z,18.00
2023-07-25T16:53:46.449Z,18.00
2023-07-25T16:56:13.851Z,17.90
2023-07-25T16:58:40.826Z,18.00
2023-07-25T17:01:07.857Z,17.90
2023-07-25T17:03:35.086Z,17.90
2023-07-25T17:06:04.493Z,17.90
2023-07-25T17:08:32.294Z,17.90
2023-07-25T17:11:05.329Z,17.90
2023-07-25T17:13:32.620Z,17.80
2023-07-25T17:15:59.884Z,17.70
2023-07-25T17:18:28.065Z,17.60
2023-07-25T17:20:55.085Z,17.60
2023-07-25T17:23:22.200Z,17.50
2023-07-25T17:25:49.210Z,17.50
2023-07-25T17:28:16.270Z,17.50
2023-07-25T17:30:43.354Z,17.40
2023-07-25T17:33:10.494Z,17.20
2023-07-25T17:35:38.452Z,17.20
2023-07-25T17:38:06.613Z,17.30
2023-07-25T17:40:33.600Z,17.40
2023-07-25T17:43:00.545Z,17.40
2023-07-25T17:45:27.479Z,17.40
2023-07-25T17:47:54.480Z,17.40
2023-07-25T17:50:21.530Z,17.40
2023-07-25T17:52:48.515Z,17.30
2023-07-25T17:55:15.608Z,17.30
2023-07-25T17:57:42.596Z,17.30
2023-07-25T18:00:10.168Z,17.30
2023-07-25T18:02:39.906Z,17.30
2023-07-25T18:05:07.342Z,17.30
2023-07-25T18:07:34.415Z,17.30
2023-07-25T18:10:01.722Z,17.10
2023-07-25T18:12:28.808Z,17.00
2023-07-25T18:14:55.914Z,17.00
2023-07-25T18:17:22.962Z,16.90
2023-07-25T18:19:50.181Z,16.80
2023-07-25T18:22:17.191Z,16.80
2023-07-25T18:24:44.279Z,16.70
2023-07-25T18:27:11.412Z,16.70
2023-07-25T18:29:38.455Z,16.50
2023-07-25T18:32:05.906Z,16.40
2023-07-25T18:34:32.928Z,16.30
2023-07-25T18:36:59.933Z,16.20
2023-07-25T18:39:26.919Z,16.20
2023-07-25T18:41:54.057Z,16.10
2023-07-25T18:44:21.041Z,16.10
2023-07-25T18:46:48.074Z,16.10
2023-07-25T18:49:15.184Z,16.20
2023-07-25T18:51:42.447Z,16.30
2023-07-25T18:54:09.577Z,16.30
2023-07-25T18:56:36.748Z,16.30
2023-07-25T18:59:05.223Z,16.30
2023-07-25T19:01:34.956Z,16.20
2023-07-25T19:04:02.527Z,15.90
2023-07-25T19:06:29.760Z,15.80
2023-07-25T19:08:56.908Z,15.70
2023-07-25T19:11:23.964Z,15.70
2023-07-25T19:13:50.977Z,15.40
2023-07-25T19:16:27.060Z,15.50
2023-07-25T19:18:54.626Z,15.40
2023-07-25T19:21:21.992Z,15.40
2023-07-25T19:23:49.246Z,15.40
2023-07-25T19:26:16.529Z,15.30
2023-07-25T19:28:43.720Z,15.20
2023-07-25T19:31:11.124Z,15.30
2023-07-25T19:33:38.588Z,15.30
2023-07-25T19:36:05.958Z,15.20
2023-07-25T19:38:36.235Z,15.20
2023-07-25T19:41:03.446Z,15.30
2023-07-25T19:43:30.888Z,15.30
2023-07-25T19:46:05.037Z,15.30
2023-07-25T19:48:33.068Z,15.30
2023-07-25T19:51:08.910Z,15.30
2023-07-25T19:53:36.549Z,15.20
2023-07-25T19:56:04.070Z,15.30
2023-07-25T19:58:31.298Z,15.20
2023-07-25T20:00:59.478Z,15.10
2023-07-25T20:03:29.725Z,15.00
2023-07-25T20:05:56.949Z,15.20
2023-07-25T20:08:24.072Z,15.30
2023-07-25T20:10:51.243Z,15.20
2023-07-25T20:13:18.553Z,15.20
2023-07-25T20:15:47.141Z,15.20
2023-07-25T20:18:15.163Z,15.10
2023-07-25T20:20:42.355Z,15.20
2023-07-25T20:23:09.530Z,15.10
2023-07-25T20:25:37.211Z,15.20
2023-07-25T20:28:04.623Z,15.10
2023-07-25T20:30:31.797Z,15.10
2023-07-25T20:32:59.112Z,15.00
2023-07-25T20:35:26.223Z,15.00
2023-07-25T20:37:53.384Z,14.80
2023-07-25T20:40:20.515Z,14.80
2023-07-25T20:42:47.630Z,14.80
2023-07-25T20:45:15.822Z,14.80
2023-07-25T20:47:43.367Z,14.60
2023-07-25T20:50:10.862Z,14.70
2023-07-25T20:52:38.184Z,14.70
2023-07-25T20:55:06.089Z,14.70
2023-07-25T20:57:33.352Z,14.80
2023-07-25T21:00:00.471Z,14.90
2023-07-25T21:02:29.089Z,14.90
2023-07-25T21:04:56.201Z,14.90
2023-07-25T21:07:23.288Z,14.90
2023-07-25T21:09:50.991Z,14.90
2023-07-25T21:12:18.078Z,14.90
2023-07-25T21:14:45.134Z,15.00
2023-07-25T21:17:15.286Z,15.00
2023-07-25T21:19:43.047Z,15.10
2023-07-25T21:22:10.131Z,15.10
2023-07-25T21:24:37.249Z,15.10
2023-07-25T21:27:04.435Z,15.10
2023-07-25T21:29:31.574Z,15.00
2023-07-25T21:31:58.717Z,15.00
2023-07-25T21:34:25.819Z,15.10
2023-07-25T21:36:52.877Z,15.00
2023-07-25T21:39:20.093Z,15.10
2023-07-25T21:41:48.299Z,15.10
2023-07-25T21:44:15.438Z,15.10
2023-07-25T21:46:42.703Z,15.20
2023-07-25T21:49:09.952Z,15.10
2023-07-25T21:51:37.015Z,15.10
2023-07-25T21:54:04.166Z,15.10
2023-07-25T21:56:31.348Z,15.00
2023-07-25T21:58:58.630Z,14.90
2023-07-25T22:01:25.809Z,14.80
2023-07-25T22:03:52.964Z,15.00
2023-07-25T22:06:20.425Z,14.90
2023-07-25T22:08:47.500Z,14.90
2023-07-25T22:11:14.610Z,14.90
2023-07-25T22:13:41.934Z,14.90
2023-07-25T22:16:09.108Z,15.00
2023-07-25T22:18:36.236Z,14.90
2023-07-25T22:21:03.341Z,15.10
2023-07-25T22:23:30.418Z,15.00
2023-07-25T22:26:07.105Z,15.00
2023-07-25T22:28:35.796Z,15.00
2023-07-25T22:31:03.654Z,14.90
2023-07-25T22:33:30.768Z,15.00
2023-07-25T22:35:57.820Z,15.00
2023-07-25T22:38:24.910Z,15.00
2023-07-25T22:40:51.983Z,15.00
2023-07-25T22:43:19.021Z,15.10
2023-07-25T22:45:46.086Z,15.10
2023-07-25T22:48:13.238Z,15.10
2023-07-25T22:50:40.260Z,15.10
2023-07-25T22:53:07.269Z,15.10
2023-07-25T22:55:34.642Z,15.00
2023-07-25T22:58:01.885Z,15.00
2023-07-25T23:00:29.026Z,15.10
2023-07-25T23:02:56.094Z,15.20
2023-07-25T23:05:23.443Z,15.20
2023-07-25T23:07:50.502Z,15.30
2023-07-25T23:10:17.708Z,15.30
2023-07-25T23:12:44.722Z,15.20
2023-07-25T23:15:13.138Z,15.30
2023-07-25T23:17:40.451Z,15.40
2023-07-25T23:20:08.387Z,15.40
2023-07-25T23:22:35.435Z,15.30
2023-07-25T23:25:02.578Z,15.20
2023-07-25T23:27:29.841Z,15.10
2023-07-25T23:29:57.264Z,15.10
2023-07-25T23:32:24.349Z,15.20
2023-07-25T23:34:55.001Z,15.20
2023-07-25T23:37:22.375Z,15.20
2023-07-25T23:39:49.645Z,15.10
2023-07-25T23:42:16.775Z,15.20
2023-07-25T23:44:43.858Z,15.20
2023-07-25T23:47:13.035Z,15.20
2023-07-25T23:49:40.546Z,15.10
2023-07-25T23:52:08.137Z,15.10
2023-07-25T23:54:35.550Z,15.00
2023-07-25T23:57:04.442Z,15.10
2023-07-25T23:59:31.997Z,15.00
